Time;durP1;ratioP1;P1;durP2;ratioP2;P2;SDS_P1;SDS_P2;PMS_P1;PMS_P2;Temp;Humidity;BMP_temperature;BMP_pressure;BME280_temperature;BME280_humidity;BME280_pressure;Samples;Min_cycle;Max_cycle;Signal;HPM_P1;HPM_P2
2022/11/17 00:00:29;;;;;;;56.60;51.23;;;;;;;21.27;42.22;93821.81;6169871;28;104988;-81
2022/11/17 00:03:32;;;;;;;55.93;50.67;;;;;;;21.26;42.25;93851.41;6167634;28;104792;-81
2022/11/17 00:06:36;;;;;;;52.43;47.73;;;;;;;21.26;42.13;93832.78;6172001;28;107758;-81
2022/11/17 00:09:41;;;;;;;54.47;49.53;;;;;;;21.15;42.00;93805.81;6171753;28;104130;-81
2022/11/17 00:16:05;;;;;;;52.73;48.03;;;;;;;21.26;42.31;93825.59;6171462;28;102600;-82
2022/11/17 00:22:30;;;;;;;51.07;46.37;;;;;;;21.23;42.18;93817.50;6147306;28;105105;-80
2022/11/17 00:25:35;;;;;;;52.10;47.40;;;;;;;21.26;41.87;93814.16;6138576;28;102697;-80
2022/11/17 00:28:38;;;;;;;52.63;47.73;;;;;;;21.25;42.10;93802.75;6162769;28;104376;-80
2022/11/17 00:35:02;;;;;;;50.37;45.83;;;;;;;21.23;42.43;93799.66;6167953;28;104265;-80
2022/11/17 00:41:23;;;;;;;49.87;45.37;;;;;;;21.24;42.31;93827.81;6167123;28;107212;-80
2022/11/17 00:44:27;;;;;;;49.40;45.10;;;;;;;21.24;42.28;93795.88;6170972;28;107372;-81
2022/11/17 00:47:30;;;;;;;50.83;46.23;;;;;;;21.28;42.04;93836.69;6162325;28;102959;-80
2022/11/17 00:50:33;;;;;;;49.50;45.00;;;;;;;21.26;42.01;93804.31;6170108;28;103367;-80
2022/11/17 00:53:36;;;;;;;49.10;44.73;;;;;;;21.24;42.25;93790.56;6170192;28;103369;-80
2022/11/17 00:56:41;;;;;;;48.60;44.13;;;;;;;21.22;42.28;93776.81;6169849;28;106313;-80
2022/11/17 00:59:44;;;;;;;49.23;44.80;;;;;;;21.24;41.96;93803.88;6161763;28;102836;-80
2022/11/17 01:02:47;;;;;;;47.97;43.60;;;;;;;21.24;42.29;93781.81;6170734;28;106308;-80
2022/11/17 01:05:50;;;;;;;46.10;42.00;;;;;;;21.26;42.38;93779.59;6146917;28;104600;-80
2022/11/17 01:08:53;;;;;;;46.40;42.30;;;;;;;21.19;42.14;93766.84;6145980;28;107412;-80
2022/11/17 01:11:58;;;;;;;47.00;42.70;;;;;;;21.26;42.41;93777.69;6144925;28;106424;-80
2022/11/17 01:15:01;;;;;;;45.33;41.20;;;;;;;21.23;42.19;93778.38;6170558;28;105323;-81
2022/11/17 01:18:04;;;;;;;44.67;40.80;;;;;;;21.26;41.99;93782.25;6170134;28;103278;-81
2022/11/17 01:21:10;;;;;;;45.17;41.07;;;;;;;21.18;41.86;93768.72;6167688;28;103772;-80
2022/11/17 01:24:15;;;;;;;42.70;38.70;;;;;;;21.25;42.13;93765.50;6165427;28;105425;-80
2022/11/17 01:27:20;;;;;;;42.90;39.00;;;;;;;21.27;41.98;93779.25;6171407;28;102968;-81
2022/11/17 01:30:23;;;;;;;43.30;39.50;;;;;;;21.13;42.13;93754.84;6170327;28;102804;-81
2022/11/17 01:33:26;;;;;;;42.33;38.37;;;;;;;21.22;41.86;93755.53;6161674;28;103204;-81
2022/11/17 01:37:17;;;;;;;42.23;38.47;;;;;;;21.26;41.98;93772.38;6168887;28;103376;-81
2022/11/17 01:39:56;;;;;;;41.37;37.67;;;;;;;21.27;42.11;93767.84;6167760;28;103228;-81
2022/11/17 01:43:01;;;;;;;43.70;39.70;;;;;;;21.19;41.79;93756.19;6171172;28;103137;-81
2022/11/17 01:46:04;;;;;;;42.03;38.23;;;;;;;21.26;42.28;93775.03;6161705;28;103117;-80
2022/11/17 01:49:14;;;;;;;40.80;37.20;;;;;;;21.25;42.19;93762.84;6169560;28;105130;-81
2022/11/17 01:52:18;;;;;;;40.47;36.87;;;;;;;21.24;41.98;93740.00;6165419;28;104180;-81
2022/11/17 01:55:24;;;;;;;40.67;37.07;;;;;;;21.25;42.11;93762.06;6170200;28;102821;-81
2022/11/17 01:58:31;;;;;;;39.40;35.90;;;;;;;21.26;42.18;93759.06;6162708;28;103297;-80
2022/11/17 02:01:54;;;;;;;37.87;34.37;;;;;;;21.25;42.23;93746.88;6153360;28;105646;-80
2022/11/17 02:05:03;;;;;;;37.90;34.53;;;;;;;21.23;41.90;93749.09;6169824;28;103821;-80
2022/11/17 02:08:07;;;;;;;37.50;34.20;;;;;;;21.26;42.18;93756.41;6137021;28;103681;-80
2022/11/17 02:11:15;;;;;;;39.33;35.70;;;;;;;21.27;41.95;93744.66;6142649;28;103207;-80
2022/11/17 02:14:19;;;;;;;36.70;33.33;;;;;;;21.24;42.27;93742.66;6144212;28;105642;-79
2022/11/17 02:17:26;;;;;;;35.83;32.73;;;;;;;21.26;41.95;93734.34;6162760;28;105247;-80
2022/11/17 02:20:47;;;;;;;35.80;32.63;;;;;;;21.19;41.93;93709.09;6159652;28;103368;-80
2022/11/17 02:24:11;;;;;;;35.90;32.80;;;;;;;21.23;42.21;93730.47;6167767;28;104236;-81
2022/11/17 02:27:38;;;;;;;35.33;32.00;;;;;;;21.26;42.14;93731.69;6168179;28;104511;-80
2022/11/17 02:30:52;;;;;;;34.33;31.33;;;;;;;21.26;41.87;93721.06;6139562;28;105076;-81
2022/11/17 02:34:06;;;;;;;32.80;29.90;;;;;;;21.28;41.79;93738.22;6167430;28;103539;-81
2022/11/17 02:37:17;;;;;;;35.17;31.87;;;;;;;21.26;42.17;93727.16;6168180;28;105545;-80
2022/11/17 02:40:26;;;;;;;34.30;31.30;;;;;;;21.27;41.96;93715.41;6168483;28;105301;-80
2022/11/17 02:47:02;;;;;;;31.73;28.87;;;;;;;21.25;41.89;93706.19;6143950;28;105228;-80
2022/11/17 02:50:09;;;;;;;31.70;28.90;;;;;;;21.26;41.69;93732.47;6167478;28;104673;-81
2022/11/17 02:53:13;;;;;;;31.93;29.13;;;;;;;21.27;42.18;93726.03;6164089;28;106506;-81
2022/11/17 02:56:16;;;;;;;30.87;28.17;;;;;;;21.29;42.17;93701.75;6163320;28;105874;-81
2022/11/17 02:59:26;;;;;;;29.67;27.10;;;;;;;21.27;41.93;93718.06;6167047;28;104161;-81
2022/11/17 03:02:49;;;;;;;31.83;28.93;;;;;;;21.27;42.21;93715.41;6167822;28;106781;-82
2022/11/17 03:05:59;;;;;;;29.90;27.20;;;;;;;21.27;41.76;93706.63;6161618;28;107360;-80
2022/11/17 03:09:11;;;;;;;29.00;26.40;;;;;;;21.29;41.90;93737.13;6173343;28;104452;-83
2022/11/17 03:12:22;;;;;;;28.30;25.80;;;;;;;21.22;41.88;93723.59;6172836;28;102599;-84
2022/11/17 03:15:36;;;;;;;26.27;23.97;;;;;;;21.29;42.28;93707.09;6172253;28;105279;-83
2022/11/17 03:18:50;;;;;;;28.73;26.03;;;;;;;21.30;42.06;93712.06;6164662;28;106227;-83
2022/11/17 03:21:59;;;;;;;28.33;25.63;;;;;;;21.31;42.31;93707.53;6172712;28;105240;-83
2022/11/17 03:25:07;;;;;;;26.07;23.77;;;;;;;21.31;42.00;93710.94;6173497;28;102613;-83
2022/11/17 03:28:12;;;;;;;27.10;24.70;;;;;;;21.32;42.25;93711.72;6170442;28;105199;-82
2022/11/17 03:31:19;;;;;;;27.20;24.80;;;;;;;21.30;42.27;93719.28;6167990;28;104402;-82
2022/11/17 03:34:24;;;;;;;25.97;23.67;;;;;;;21.29;42.13;93704.41;6173288;28;106427;-82
2022/11/17 03:37:30;;;;;;;26.10;23.90;;;;;;;21.29;42.02;93707.84;6172567;28;105183;-81
2022/11/17 03:40:37;;;;;;;26.47;24.17;;;;;;;21.30;42.01;93705.97;6160988;28;106955;-82
2022/11/17 03:43:43;;;;;;;25.60;23.43;;;;;;;21.31;41.89;93718.94;6172650;28;103096;-82
2022/11/17 03:46:49;;;;;;;24.23;22.10;;;;;;;21.26;42.02;93713.84;6166244;28;103107;-83
2022/11/17 03:49:59;;;;;;;25.37;23.27;;;;;;;21.24;41.57;93710.75;6173422;28;103891;-83
2022/11/17 03:53:04;;;;;;;24.27;22.10;;;;;;;21.32;42.26;93719.72;6164979;28;103714;-82
2022/11/17 03:56:22;;;;;;;25.07;22.87;;;;;;;21.29;41.66;93715.84;6173019;28;105015;-82
2022/11/17 03:59:30;;;;;;;23.70;21.60;;;;;;;21.33;42.02;93716.72;6172324;28;102729;-83
2022/11/17 04:02:35;;;;;;;23.67;21.60;;;;;;;21.24;41.98;93697.44;6169305;28;105509;-83
2022/11/17 04:05:38;;;;;;;25.00;22.80;;;;;;;21.31;41.96;93681.69;6165784;28;103143;-80
2022/11/17 04:08:41;;;;;;;23.97;21.77;;;;;;;21.33;41.93;93719.38;6170372;28;107870;-80
2022/11/17 04:18:27;;;;;;;22.13;20.13;;;;;;;21.37;42.03;93732.81;6168342;28;107845;-79
2022/11/17 04:21:31;;;;;;;20.50;18.67;;;;;;;21.39;42.49;93667.50;6168385;28;105078;-79
2022/11/17 04:24:34;;;;;;;17.63;15.83;;;;;;;21.43;44.60;93675.59;6167853;28;103788;-80
2022/11/17 04:30:58;;;;;;;17.67;15.97;;;;;;;21.55;45.37;93680.91;6168401;28;103746;-80
2022/11/17 04:34:04;;;;;;;16.50;15.00;;;;;;;21.56;45.36;93687.00;6168565;28;102972;-80
2022/11/17 04:37:16;;;;;;;17.53;14.90;;;;;;;21.51;45.10;93677.38;6164433;28;107636;-80
2022/11/17 04:40:19;;;;;;;16.33;14.97;;;;;;;21.60;45.22;93666.59;6165260;28;105028;-83
2022/11/17 04:43:21;;;;;;;16.33;14.73;;;;;;;21.63;45.19;93668.56;6168019;28;103094;-81
2022/11/17 04:46:25;;;;;;;15.27;13.87;;;;;;;21.63;45.52;93685.31;6169348;28;102593;-80
2022/11/17 04:49:31;;;;;;;14.63;13.33;;;;;;;21.64;45.36;93680.75;6167530;28;103328;-81
2022/11/17 04:52:34;;;;;;;15.97;14.37;;;;;;;21.73;45.69;93681.44;6169535;28;105099;-82
2022/11/17 04:55:37;;;;;;;14.53;13.33;;;;;;;21.80;45.22;93660.31;6169281;28;106004;-81
2022/11/17 04:58:41;;;;;;;13.83;12.60;;;;;;;21.81;45.22;93664.53;6169070;28;103063;-81
2022/11/17 05:01:44;;;;;;;14.73;13.10;;;;;;;21.84;45.72;93674.53;6158768;28;106348;-81
2022/11/17 05:04:58;;;;;;;14.87;13.33;;;;;;;21.85;47.10;93681.44;6169206;28;107259;-81
2022/11/17 05:08:01;;;;;;;16.07;12.77;;;;;;;21.84;50.52;93658.56;6167751;28;103028;-80
2022/11/17 05:14:27;;;;;;;12.20;11.00;;;;;;;21.80;48.34;93641.69;6137435;28;103322;-80
2022/11/17 05:17:29;;;;;;;17.27;12.27;;;;;;;21.72;48.07;93647.94;6143240;28;103179;-79
2022/11/17 05:20:34;;;;;;;12.80;11.30;;;;;;;21.81;48.22;93649.31;6143678;28;102956;-79
2022/11/17 05:23:54;;;;;;;12.77;10.93;;;;;;;21.78;47.98;93654.56;6160182;28;106081;-80
2022/11/17 05:26:57;;;;;;;12.90;11.13;;;;;;;21.65;47.47;93650.38;6168707;28;103593;-80
2022/11/17 05:30:00;;;;;;;13.20;10.87;;;;;;;21.47;47.63;93599.28;6168616;28;104103;-80
2022/11/17 05:33:04;;;;;;;14.40;11.63;;;;;;;21.48;47.49;93633.53;6169617;28;106436;-80
2022/11/17 05:36:09;;;;;;;14.57;11.33;;;;;;;21.54;47.06;93638.66;6161349;28;104419;-79
2022/11/17 05:39:12;;;;;;;11.73;10.57;;;;;;;21.48;47.04;93619.47;6168421;28;105081;-80
2022/11/17 05:42:15;;;;;;;11.60;10.50;;;;;;;21.41;46.87;93593.44;6169425;28;106360;-80
2022/11/17 05:45:19;;;;;;;10.97;9.87;;;;;;;21.44;46.76;93627.34;6169357;28;104012;-80
2022/11/17 05:48:22;;;;;;;12.00;10.70;;;;;;;21.45;46.67;93636.09;6161959;28;105530;-80
2022/11/17 05:51:30;;;;;;;13.47;12.10;;;;;;;21.45;46.01;93649.41;6167281;28;102769;-80
2022/11/17 05:54:34;;;;;;;10.37;9.37;;;;;;;21.46;46.23;93633.09;6168498;28;103911;-80
2022/11/17 05:57:37;;;;;;;11.70;10.50;;;;;;;21.44;45.98;93645.97;6161870;28;103235;-81
2022/11/17 06:00:41;;;;;;;10.70;9.60;;;;;;;21.35;46.12;93620.63;6168763;28;106368;-81
2022/11/17 06:03:49;;;;;;;10.67;9.63;;;;;;;21.48;45.81;93646.84;6167797;28;103175;-81
2022/11/17 06:06:57;;;;;;;11.00;9.80;;;;;;;21.48;45.82;93675.34;6169048;28;106558;-80
2022/11/17 06:10:01;;;;;;;11.37;9.33;;;;;;;21.47;45.73;93642.63;6160901;28;103667;-78
2022/11/17 06:13:04;;;;;;;10.43;9.37;;;;;;;21.41;45.03;93613.94;6167622;28;103741;-79
2022/11/17 06:16:10;;;;;;;10.83;9.83;;;;;;;21.49;45.09;93659.03;6169639;28;104552;-80
2022/11/17 06:19:19;;;;;;;11.13;10.07;;;;;;;21.49;45.32;93648.41;6169425;28;102724;-80
2022/11/17 06:22:25;;;;;;;11.70;10.67;;;;;;;21.51;45.31;93685.34;6160615;28;106446;-80
2022/11/17 06:25:29;;;;;;;10.70;9.53;;;;;;;21.51;44.90;93656.84;6169337;28;105154;-80
2022/11/17 06:28:34;;;;;;;10.80;9.80;;;;;;;21.43;44.70;93679.03;6171815;28;103111;-81
2022/11/17 06:31:41;;;;;;;11.20;10.10;;;;;;;21.43;44.75;93664.94;6167424;28;103203;-82
2022/11/17 06:34:46;;;;;;;10.37;9.37;;;;;;;21.52;44.96;93686.91;6171337;28;102880;-81
2022/11/17 06:37:58;;;;;;;11.47;10.47;;;;;;;21.51;44.60;93712.75;6171488;28;105083;-80
2022/11/17 06:41:01;;;;;;;10.33;9.33;;;;;;;21.52;44.58;93738.25;6170136;28;104135;-80
2022/11/17 06:44:12;;;;;;;9.97;9.00;;;;;;;21.52;44.69;93761.44;6162303;28;103039;-79
2022/11/17 06:47:15;;;;;;;11.57;10.37;;;;;;;21.51;44.37;93746.56;6169226;28;103334;-80
2022/11/17 06:50:18;;;;;;;10.87;9.80;;;;;;;21.51;44.27;93773.97;6170351;28;105895;-78
2022/11/17 06:53:25;;;;;;;10.87;9.23;;;;;;;21.51;44.72;93778.50;6168600;28;105284;-79
2022/11/17 06:56:28;;;;;;;10.50;9.50;;;;;;;21.50;44.57;93796.34;6162225;28;103706;-78
2022/11/17 06:59:31;;;;;;;10.90;9.40;;;;;;;21.51;44.54;93832.53;6170515;28;104920;-81
2022/11/17 07:02:36;;;;;;;9.73;8.93;;;;;;;21.51;44.40;93848.50;6169837;28;103696;-80
2022/11/17 07:05:39;;;;;;;9.50;8.60;;;;;;;21.49;44.08;93887.94;6164239;28;106299;-82
2022/11/17 07:08:44;;;;;;;10.17;9.17;;;;;;;21.49;44.10;93906.56;6166205;28;106668;-80
2022/11/17 07:11:47;;;;;;;9.33;8.33;;;;;;;21.47;44.10;93884.06;6168566;28;106606;-80
2022/11/17 07:14:50;;;;;;;8.50;7.70;;;;;;;21.45;44.43;93865.75;6169551;28;102521;-80
2022/11/17 07:17:54;;;;;;;10.00;9.10;;;;;;;21.47;44.49;93852.91;6161187;28;103808;-79
2022/11/17 07:21:01;;;;;;;9.60;8.70;;;;;;;21.48;44.04;93832.38;6169038;28;103734;-80
2022/11/17 07:24:07;;;;;;;9.03;8.13;;;;;;;21.46;43.86;93813.31;6168261;28;104693;-80
2022/11/17 07:27:10;;;;;;;9.10;8.30;;;;;;;21.47;43.89;93799.66;6169112;28;103726;-80
2022/11/17 07:30:14;;;;;;;9.27;8.43;;;;;;;21.46;44.20;93782.16;6162144;28;104866;-80
2022/11/17 07:33:17;;;;;;;9.67;8.77;;;;;;;21.46;44.13;93744.09;6169371;28;102625;-80
2022/11/17 07:36:21;;;;;;;9.60;8.70;;;;;;;21.47;43.89;93735.78;6168191;28;105995;-80
2022/11/17 07:39:25;;;;;;;9.90;8.93;;;;;;;21.46;43.65;93707.63;6163775;28;106384;-80
2022/11/17 07:42:28;;;;;;;8.80;8.00;;;;;;;21.47;43.82;93677.25;6164359;28;106355;-80
2022/11/17 07:45:31;;;;;;;9.00;8.27;;;;;;;21.38;43.95;93687.25;6169807;28;103759;-80
2022/11/17 07:48:34;;;;;;;9.30;8.40;;;;;;;21.46;43.50;93726.25;6168780;28;105854;-81
2022/11/17 07:51:38;;;;;;;8.87;7.97;;;;;;;21.45;43.69;93714.06;6165329;28;103004;-79
2022/11/17 07:54:43;;;;;;;8.53;7.83;;;;;;;21.48;43.62;93715.28;6171966;28;105852;-80
2022/11/17 07:57:46;;;;;;;8.80;7.90;;;;;;;21.48;43.75;93688.66;6172374;28;107535;-80
2022/11/17 08:00:49;;;;;;;8.40;7.33;;;;;;;21.49;43.65;93704.28;6172566;28;106357;-80
2022/11/17 08:03:53;;;;;;;8.30;7.50;;;;;;;21.48;43.67;93729.34;6164531;28;103354;-80
2022/11/17 08:06:56;;;;;;;9.00;8.20;;;;;;;21.43;43.41;93729.59;6173553;28;102790;-80
2022/11/17 08:10:00;;;;;;;8.10;7.40;;;;;;;21.46;43.39;93741.44;6172043;28;105064;-80
2022/11/17 08:13:05;;;;;;;7.30;6.67;;;;;;;21.50;43.39;93745.75;6172112;28;103461;-80
2022/11/17 08:16:09;;;;;;;8.50;7.70;;;;;;;21.50;43.73;93742.31;6167074;28;103857;-81
2022/11/17 08:19:13;;;;;;;8.67;7.87;;;;;;;21.51;43.37;93750.00;6172647;28;103091;-81
2022/11/17 08:22:16;;;;;;;7.77;7.10;;;;;;;21.43;43.57;93750.09;6173698;28;103282;-81
2022/11/17 08:25:23;;;;;;;7.80;7.10;;;;;;;21.50;43.13;93780.38;6164903;28;103003;-82
2022/11/17 08:28:27;;;;;;;8.00;7.10;;;;;;;21.50;43.61;93776.94;6173745;28;103928;-81
2022/11/17 08:31:30;;;;;;;8.10;7.30;;;;;;;21.48;43.22;93787.91;6173069;28;106351;-81
2022/11/17 08:34:33;;;;;;;8.00;7.30;;;;;;;21.50;43.12;93788.34;6171717;28;106677;-80
2022/11/17 08:37:40;;;;;;;8.60;7.80;;;;;;;21.50;43.21;93791.00;6163394;28;107420;-81
2022/11/17 08:40:46;;;;;;;7.60;6.90;;;;;;;21.47;43.32;93798.88;6172819;28;102589;-81
2022/11/17 08:43:50;;;;;;;7.97;7.20;;;;;;;21.50;43.57;93801.66;6171803;28;105366;-80
2022/11/17 08:46:53;;;;;;;8.07;7.47;;;;;;;21.51;43.13;93802.47;6172730;28;106800;-80
2022/11/17 08:49:56;;;;;;;7.30;6.70;;;;;;;21.51;43.01;93805.91;6165460;28;106542;-81
2022/11/17 08:53:00;;;;;;;7.97;7.20;;;;;;;21.54;42.92;93798.34;6173643;28;102967;-80
2022/11/17 08:56:09;;;;;;;7.40;6.80;;;;;;;21.55;43.52;93805.22;6173235;28;103686;-81
2022/11/17 08:59:13;;;;;;;7.10;6.60;;;;;;;21.51;43.14;93811.22;6169056;28;107617;-82
2022/11/17 09:02:16;;;;;;;6.93;6.33;;;;;;;21.55;42.97;93799.91;6171397;28;103526;-80
2022/11/17 09:05:19;;;;;;;7.80;7.00;;;;;;;21.54;42.87;93799.13;6173511;28;103329;-80
2022/11/17 09:08:23;;;;;;;7.10;6.50;;;;;;;21.54;42.76;93793.81;6173167;28;105059;-81
2022/11/17 09:11:48;;;;;;;7.37;6.73;;;;;;;21.54;42.92;93798.34;6165580;28;103069;-81
2022/11/17 09:14:51;;;;;;;7.87;7.17;;;;;;;21.54;43.29;93798.34;6173127;28;103774;-80
2022/11/17 09:17:54;;;;;;;7.50;6.90;;;;;;;21.57;42.93;93805.66;6172704;28;104343;-81
2022/11/17 09:21:00;;;;;;;6.40;5.80;;;;;;;21.55;43.38;93790.03;6174557;28;106114;-80
2022/11/17 09:24:04;;;;;;;6.67;6.07;;;;;;;21.57;42.78;93795.81;6166563;28;106180;-82
2022/11/17 09:27:08;;;;;;;7.17;6.47;;;;;;;21.57;42.83;93789.69;6172566;28;105497;-81
2022/11/17 09:30:13;;;;;;;7.30;6.70;;;;;;;21.57;43.10;93789.69;6177190;28;106990;-81
2022/11/17 09:33:16;;;;;;;9.07;6.40;;;;;;;21.58;43.23;93799.25;6169309;28;103039;-82
2022/11/17 09:36:19;;;;;;;6.33;5.83;;;;;;;21.51;43.25;93789.16;6168983;28;106421;-80
2022/11/17 09:39:22;;;;;;;6.50;6.00;;;;;;;21.56;43.10;93791.59;6173052;28;107717;-80
2022/11/17 09:42:28;;;;;;;6.57;6.07;;;;;;;21.56;43.06;93780.16;6174270;28;103499;-81
2022/11/17 09:45:37;;;;;;;6.77;6.17;;;;;;;21.58;42.97;93780.59;6166946;28;105925;-81
2022/11/17 09:48:46;;;;;;;6.50;5.90;;;;;;;21.59;42.69;93792.81;6174881;28;105175;-81
2022/11/17 09:51:50;;;;;;;6.97;6.27;;;;;;;21.57;42.95;93784.38;6172373;28;105253;-81
2022/11/17 09:54:56;;;;;;;6.60;6.00;;;;;;;21.61;42.73;93779.94;6171102;28;103472;-81
2022/11/17 09:58:18;;;;;;;6.83;6.23;;;;;;;21.56;43.23;93770.28;6163026;28;106242;-81
2022/11/17 10:01:23;;;;;;;6.63;6.03;;;;;;;21.58;42.51;93764.63;6169770;28;105977;-81
2022/11/17 10:04:28;;;;;;;6.30;5.80;;;;;;;21.60;42.96;93773.84;6171597;28;105210;-80
2022/11/17 10:07:34;;;;;;;6.23;5.73;;;;;;;21.63;42.88;93769.72;6164641;28;103186;-81
2022/11/17 10:10:42;;;;;;;6.70;6.10;;;;;;;21.63;42.75;93775.06;6169410;28;102693;-80
2022/11/17 10:13:48;;;;;;;6.13;5.60;;;;;;;21.62;43.04;93778.81;6171421;28;103862;-81
2022/11/17 10:16:53;;;;;;;6.37;5.87;;;;;;;21.63;42.80;93778.50;6170674;28;105206;-81
2022/11/17 10:19:56;;;;;;;5.93;5.43;;;;;;;21.62;42.75;93773.50;6163249;28;103735;-81
2022/11/17 10:23:02;;;;;;;6.50;6.00;;;;;;;21.62;42.77;93784.16;6171402;28;103084;-81
2022/11/17 10:26:09;;;;;;;6.10;5.60;;;;;;;21.57;42.56;93763.84;6170029;28;103321;-81
2022/11/17 10:29:14;;;;;;;6.17;5.67;;;;;;;21.64;42.74;93772.06;6170598;28;102961;-82
2022/11/17 10:32:18;;;;;;;5.57;5.07;;;;;;;21.64;42.75;93761.41;6165012;28;103188;-82
2022/11/17 10:35:23;;;;;;;6.60;6.10;;;;;;;21.65;42.55;93770.94;6172388;28;104923;-81
2022/11/17 10:38:28;;;;;;;5.77;5.27;;;;;;;21.65;42.93;93762.19;6172768;28;106167;-82
2022/11/17 10:41:38;;;;;;;5.67;5.23;;;;;;;21.65;42.93;93762.19;6164502;28;106855;-83
2022/11/17 10:44:50;;;;;;;7.13;5.60;;;;;;;21.63;42.50;93754.53;6171187;28;104670;-82
2022/11/17 10:48:08;;;;;;;5.50;5.00;;;;;;;21.66;42.38;93763.72;6171960;28;103374;-82
2022/11/17 10:51:24;;;;;;;5.87;5.37;;;;;;;21.66;42.68;93763.72;6172582;28;105409;-81
2022/11/17 10:54:27;;;;;;;6.00;5.50;;;;;;;21.67;42.92;93760.72;6164168;28;106588;-82
2022/11/17 10:57:31;;;;;;;5.53;5.03;;;;;;;21.59;42.40;93760.84;6171934;28;103567;-82
2022/11/17 11:00:37;;;;;;;5.37;4.97;;;;;;;21.67;42.56;93775.94;6171253;28;103535;-82
2022/11/17 11:03:49;;;;;;;5.73;5.33;;;;;;;21.65;42.96;93775.50;6167800;28;107173;-82
2022/11/17 11:07:06;;;;;;;6.30;5.17;;;;;;;21.67;42.80;93775.94;6167737;28;103218;-82
2022/11/17 11:10:16;;;;;;;5.60;5.10;;;;;;;21.63;42.94;93765.19;6171075;28;106148;-81
2022/11/17 11:13:26;;;;;;;5.50;5.00;;;;;;;21.67;42.51;93773.25;6170081;28;104331;-80
2022/11/17 11:16:30;;;;;;;6.00;5.50;;;;;;;21.66;42.42;93780.47;6160663;28;103511;-81
2022/11/17 11:19:34;;;;;;;6.30;5.10;;;;;;;21.66;42.61;93780.47;6169266;28;105036;-80
2022/11/17 11:22:46;;;;;;;5.27;4.83;;;;;;;21.65;42.65;93770.16;6171864;28;103578;-81
2022/11/17 11:25:52;;;;;;;5.00;4.60;;;;;;;21.65;42.68;93778.16;6176433;28;102928;-82
2022/11/17 11:29:05;;;;;;;5.10;4.70;;;;;;;21.69;42.86;93771.06;6178504;28;105905;-82
2022/11/17 11:32:24;;;;;;;5.10;4.70;;;;;;;21.67;42.76;93778.59;6181928;28;103782;-81
2022/11/17 11:35:52;;;;;;;5.10;4.70;;;;;;;21.67;42.46;93770.59;6182985;28;104821;-81
2022/11/17 11:39:00;;;;;;;5.23;4.73;;;;;;;21.63;42.83;93767.84;6175926;28;103759;-79
2022/11/17 11:42:28;;;;;;;5.40;4.93;;;;;;;21.64;42.95;93763.28;6181896;28;102583;-80
2022/11/17 11:45:46;;;;;;;4.53;4.20;;;;;;;21.68;42.76;93772.97;6181958;28;104132;-81
2022/11/17 11:48:54;;;;;;;5.00;4.60;;;;;;;21.65;42.38;93772.81;6180091;28;102685;-80
2022/11/17 11:51:57;;;;;;;5.03;4.63;;;;;;;21.69;42.85;93779.06;6176763;28;106438;-80
2022/11/17 11:55:04;;;;;;;4.90;4.50;;;;;;;21.68;42.61;93772.19;6181353;28;105080;-79
2022/11/17 11:58:14;;;;;;;5.67;5.17;;;;;;;21.69;42.66;93771.06;6181024;28;105233;-80
2022/11/17 12:01:20;;;;;;;5.40;4.90;;;;;;;21.69;42.36;93773.75;6166146;28;102713;-81
2022/11/17 12:04:33;;;;;;;5.30;4.90;;;;;;;21.67;42.52;93775.94;6173666;28;102479;-80
2022/11/17 12:07:44;;;;;;;4.93;4.43;;;;;;;21.68;42.35;93775.63;6170991;28;103296;-81
2022/11/17 12:10:54;;;;;;;5.43;4.77;;;;;;;21.68;42.69;93772.97;6174644;28;105044;-81
2022/11/17 12:13:59;;;;;;;4.80;4.40;;;;;;;21.64;42.79;93771.28;6167889;28;106214;-81
2022/11/17 12:17:06;;;;;;;4.30;4.00;;;;;;;21.65;42.62;93778.94;6174889;28;106027;-81
2022/11/17 12:24:16;;;;;;;4.97;4.57;;;;;;;21.67;42.71;93779.38;6228871;22;103215;-64
2022/11/17 12:27:43;;;;;;;6.13;4.63;;;;;;;21.68;42.41;93772.19;6202967;28;102944;-63
2022/11/17 12:30:55;;;;;;;5.33;4.83;;;;;;;21.68;42.84;93772.97;6203401;28;104093;-63
2022/11/17 12:34:26;;;;;;;4.80;4.40;;;;;;;21.69;42.40;93784.38;6202826;28;103344;-65
2022/11/17 12:37:29;;;;;;;4.30;4.00;;;;;;;21.73;42.95;93791.38;6191203;28;103336;-62
2022/11/17 12:40:45;;;;;;;5.80;5.30;;;;;;;21.76;43.85;93788.03;6178080;28;102944;-63
2022/11/17 12:43:48;;;;;;;6.10;5.60;;;;;;;21.80;44.39;93785.47;6178535;28;103037;-63
2022/11/17 12:47:01;;;;;;;5.83;5.33;;;;;;;21.81;44.19;93779.03;6168222;28;103657;-63
2022/11/17 12:50:21;;;;;;;5.67;5.20;;;;;;;21.81;44.05;93789.69;6178290;28;103001;-63
2022/11/17 12:53:36;;;;;;;7.87;5.60;;;;;;;21.83;43.85;93784.81;6178399;28;103269;-63
2022/11/17 12:56:48;;;;;;;6.63;6.03;;;;;;;21.84;44.35;93790.94;6174953;27;104147;-65
2022/11/17 13:00:06;;;;;;;5.63;5.23;;;;;;;21.79;44.04;93779.38;6172538;28;103855;-65
2022/11/17 13:03:16;;;;;;;6.77;6.27;;;;;;;21.78;44.20;93785.81;6178191;28;103088;-64
2022/11/17 13:06:19;;;;;;;6.07;5.57;;;;;;;21.77;43.58;93781.59;6178352;28;102970;-64
2022/11/17 13:09:37;;;;;;;5.60;5.10;;;;;;;21.76;43.63;93776.59;6166560;28;103003;-64
2022/11/17 13:12:42;;;;;;;5.70;5.30;;;;;;;21.78;43.88;93777.81;6178433;28;103372;-64
2022/11/17 13:15:48;;;;;;;5.90;5.40;;;;;;;21.76;43.63;93781.94;6178524;27;103496;-65
2022/11/17 13:18:51;;;;;;;5.43;5.03;;;;;;;21.78;43.76;93787.69;6177769;28;103448;-65
2022/11/17 13:21:59;;;;;;;5.67;5.17;;;;;;;21.76;43.64;93773.94;6166649;28;103417;-65
2022/11/17 13:25:19;;;;;;;5.50;5.10;;;;;;;21.75;43.78;93780.38;6177986;28;102911;-64
2022/11/17 13:28:31;;;;;;;5.33;4.93;;;;;;;21.75;43.59;93772.38;6178502;27;103163;-64
2022/11/17 13:31:34;;;;;;;5.77;5.37;;;;;;;21.75;43.64;93778.50;6167963;28;103279;-65
2022/11/17 13:34:46;;;;;;;5.50;5.10;;;;;;;21.76;43.59;93781.94;6164504;28;103111;-64
2022/11/17 13:38:03;;;;;;;5.80;5.33;;;;;;;21.73;43.30;93762.06;6169773;28;103109;-65
2022/11/17 13:41:07;;;;;;;6.10;5.50;;;;;;;21.74;43.53;93768.19;6185754;27;103002;-65
2022/11/17 13:44:15;;;;;;;5.90;5.40;;;;;;;21.74;43.37;93778.81;6174998;27;104445;-65
2022/11/17 13:47:19;;;;;;;5.60;5.20;;;;;;;21.72;43.02;93781.06;6186143;28;103924;-64
2022/11/17 13:50:33;;;;;;;6.30;5.80;;;;;;;21.73;43.10;93790.59;6185254;28;102947;-64
2022/11/17 13:53:36;;;;;;;5.17;4.77;;;;;;;21.75;43.24;93783.03;6180725;27;103167;-65
2022/11/17 13:56:42;;;;;;;5.80;5.40;;;;;;;21.74;43.12;93792.13;6180311;28;104284;-63
2022/11/17 13:59:47;;;;;;;5.70;5.20;;;;;;;21.74;43.17;93798.25;6185132;28;103496;-63
2022/11/17 14:02:54;;;;;;;5.73;5.33;;;;;;;21.72;43.57;93791.69;6185298;28;102915;-63
2022/11/17 14:05:57;;;;;;;5.00;4.60;;;;;;;21.72;42.95;93789.81;6174366;28;104208;-64
2022/11/17 14:09:05;;;;;;;5.67;5.17;;;;;;;21.71;43.15;93787.50;6184927;28;103571;-63
2022/11/17 14:12:10;;;;;;;5.37;4.97;;;;;;;21.70;43.20;93796.59;6185165;28;103823;-65
2022/11/17 14:15:21;;;;;;;5.20;4.80;;;;;;;21.70;42.94;93793.94;6184771;28;103019;-64
2022/11/17 14:18:30;;;;;;;5.17;4.60;;;;;;;21.72;43.20;93800.47;6174447;28;104401;-65
2022/11/17 14:21:33;;;;;;;5.83;5.10;;;;;;;21.71;42.91;93804.25;6184232;28;103286;-65
2022/11/17 14:24:37;;;;;;;5.27;4.87;;;;;;;21.70;43.38;93812.56;6184564;28;103794;-62
2022/11/17 14:27:40;;;;;;;5.57;5.07;;;;;;;21.71;43.53;93822.09;6179975;28;104783;-63
2022/11/17 14:30:47;;;;;;;5.40;4.87;;;;;;;21.61;43.41;93819.88;6179936;27;103143;-64
2022/11/17 14:33:50;;;;;;;5.90;4.40;;;;;;;21.50;43.79;93820.28;6185137;28;103067;-64
2022/11/17 14:36:55;;;;;;;5.43;4.50;;;;;;;21.44;43.43;93823.50;6184523;28;103122;-64
2022/11/17 14:39:59;;;;;;;8.23;4.40;;;;;;;21.40;43.29;93818.06;6173299;28;102942;-64
2022/11/17 14:43:02;;;;;;;4.83;4.00;;;;;;;21.35;43.67;93822.84;6184511;28;103201;-64
2022/11/17 14:46:07;;;;;;;4.53;4.13;;;;;;;21.34;43.67;93826.59;6180637;28;103310;-65
2022/11/17 14:49:10;;;;;;;4.33;3.83;;;;;;;21.32;43.39;93837.56;6183772;28;103112;-64
2022/11/17 14:52:13;;;;;;;4.50;3.70;;;;;;;21.32;43.45;93821.59;6173797;27;103197;-66
2022/11/17 14:55:17;;;;;;;4.20;3.80;;;;;;;21.34;43.44;93837.22;6185549;28;104621;-64